sensor_id;sensor_type;location;lat;lon;timestamp;pressure;altitude;pressure_sealevel;temperature;humidity
10006;BME280;5042;42.626;23.382;2023-04-12T00:01:29;93465.56;;;9.32;100.00
10006;BME280;5042;42.626;23.382;2023-04-12T00:03:56;93463.38;;;9.36;100.00
10006;BME280;5042;42.626;23.382;2023-04-12T00:06:23;93467.00;;;9.28;100.00
10006;BME280;5042;42.626;23.382;2023-04-12T00:08:57;93462.56;;;9.22;100.00
10006;BME280;5042;42.626;23.382;2023-04-12T00:11:23;93461.78;;;9.21;100.00
10006;BME280;5042;42.626;23.382;2023-04-12T00:13:50;93459.78;;;9.23;100.00
10006;BME280;5042;42.626;23.382;2023-04-12T00:16:17;93455.94;;;9.26;100.00
10006;BME280;5042;42.626;23.382;2023-04-12T00:18:45;93399.88;;;8.88;100.00
10006;BME280;5042;42.626;23.382;2023-04-12T00:21:13;93449.28;;;9.30;100.00
10006;BME280;5042;42.626;23.382;2023-04-12T00:23:44;93448.47;;;9.29;100.00
10006;BME280;5042;42.626;23.382;2023-04-12T00:26:11;93446.88;;;9.28;100.00
10006;BME280;5042;42.626;23.382;2023-04-12T00:28:38;93441.44;;;9.30;100.00
10006;BME280;5042;42.626;23.382;2023-04-12T00:31:05;93450.09;;;9.30;100.00
10006;BME280;5042;42.626;23.382;2023-04-12T00:33:33;93423.59;;;9.07;100.00
10006;BME280;5042;42.626;23.382;2023-04-12T00:36:01;93437.63;;;9.32;100.00
10006;BME280;5042;42.626;23.382;2023-04-12T00:38:27;93395.44;;;8.96;100.00
10006;BME280;5042;42.626;23.382;2023-04-12T00:40:54;93433.97;;;9.40;100.00
10006;BME280;5042;42.626;23.382;2023-04-12T00:43:21;93434.38;;;9.44;100.00
10006;BME280;5042;42.626;23.382;2023-04-12T00:45:53;93435.19;;;9.38;100.00
10006;BME280;5042;42.626;23.382;2023-04-12T00:48:21;93442.44;;;9.36;100.00
10006;BME280;5042;42.626;23.382;2023-04-12T00:50:48;93431.97;;;9.36;100.00
10006;BME280;5042;42.626;23.382;2023-04-12T00:53:17;93431.97;;;9.36;100.00
10006;BME280;5042;42.626;23.382;2023-04-12T00:55:44;93433.56;;;9.37;100.00
10006;BME280;5042;42.626;23.382;2023-04-12T00:58:12;93424.94;;;9.29;100.00
10006;BME280;5042;42.626;23.382;2023-04-12T01:00:39;93440.25;;;9.32;100.00
10006;BME280;5042;42.626;23.382;2023-04-12T01:03:06;93432.41;;;9.32;100.00
10006;BME280;5042;42.626;23.382;2023-04-12T01:05:49;93434.00;;;9.33;100.00
10006;BME280;5042;42.626;23.382;2023-04-12T01:08:26;93430.78;;;9.31;100.00
10006;BME280;5042;42.626;23.382;2023-04-12T01:10:59;93417.94;;;9.23;100.00
10006;BME280;5042;42.626;23.382;2023-04-12T01:13:31;93414.72;;;9.21;100.00
10006;BME280;5042;42.626;23.382;2023-04-12T01:16:06;93425.34;;;9.26;100.00
10006;BME280;5042;42.626;23.382;2023-04-12T01:18:36;93417.94;;;9.23;100.00
10006;BME280;5042;42.626;23.382;2023-04-12T01:21:09;93366.09;;;8.94;100.00
10006;BME280;5042;42.626;23.382;2023-04-12T01:23:50;93411.06;;;9.22;100.00
10006;BME280;5042;42.626;23.382;2023-04-12T01:26:33;93420.34;;;9.18;100.00
10006;BME280;5042;42.626;23.382;2023-04-12T01:29:07;93413.94;;;9.14;100.00
10006;BME280;5042;42.626;23.382;2023-04-12T01:31:35;93414.31;;;9.18;100.00
10006;BME280;5042;42.626;23.382;2023-04-12T01:34:07;93409.50;;;9.15;100.00
10006;BME280;5042;42.626;23.382;2023-04-12T01:36:36;93406.69;;;9.16;100.00
10006;BME280;5042;42.626;23.382;2023-04-12T01:39:05;93411.91;;;9.16;100.00
10006;BME280;5042;42.626;23.382;2023-04-12T01:41:32;93420.31;;;9.25;100.00
10006;BME280;5042;42.626;23.382;2023-04-12T01:43:59;93417.53;;;9.13;100.00
10006;BME280;5042;42.626;23.382;2023-04-12T01:46:27;93413.91;;;9.21;100.00
10006;BME280;5042;42.626;23.382;2023-04-12T01:48:55;93418.53;;;9.12;100.00
10006;BME280;5042;42.626;23.382;2023-04-12T01:51:31;93423.97;;;9.17;100.00
10006;BME280;5042;42.626;23.382;2023-04-12T01:54:03;93412.47;;;9.18;100.00
10006;BME280;5042;42.626;23.382;2023-04-12T01:56:36;93380.53;;;9.09;100.00
10006;BME280;5042;42.626;23.382;2023-04-12T01:59:04;93407.66;;;9.15;100.00
10006;BME280;5042;42.626;23.382;2023-04-12T02:01:33;93408.88;;;9.19;100.00
10006;BME280;5042;42.626;23.382;2023-04-12T02:04:00;93402.03;;;9.18;100.00
10006;BME280;5042;42.626;23.382;2023-04-12T02:06:29;93407.06;;;9.13;100.00
10006;BME280;5042;42.626;23.382;2023-04-12T02:08:57;93395.41;;;9.16;100.00
10006;BME280;5042;42.626;23.382;2023-04-12T02:11:25;93398.84;;;9.16;100.00
10006;BME280;5042;42.626;23.382;2023-04-12T02:13:52;93393.00;;;9.14;100.00
10006;BME280;5042;42.626;23.382;2023-04-12T02:16:18;93399.66;;;9.10;100.00
10006;BME280;5042;42.626;23.382;2023-04-12T02:18:48;93400.44;;;9.17;100.00
10006;BME280;5042;42.626;23.382;2023-04-12T02:21:15;93401.25;;;9.11;100.00
10006;BME280;5042;42.626;23.382;2023-04-12T02:23:42;93396.00;;;9.11;100.00
10006;BME280;5042;42.626;23.382;2023-04-12T02:26:09;93392.59;;;9.10;100.00
10006;BME280;5042;42.626;23.382;2023-04-12T02:28:36;93387.59;;;9.09;100.00
10006;BME280;5042;42.626;23.382;2023-04-12T02:31:03;93367.50;;;8.89;100.00
10006;BME280;5042;42.626;23.382;2023-04-12T02:33:31;93396.63;;;9.13;100.00
10006;BME280;5042;42.626;23.382;2023-04-12T02:35:59;93395.44;;;9.09;100.00
10006;BME280;5042;42.626;23.382;2023-04-12T02:38:26;93404.88;;;9.10;100.00
10006;BME280;5042;42.626;23.382;2023-04-12T02:40:53;93391.00;;;9.03;100.00
10006;BME280;5042;42.626;23.382;2023-04-12T02:43:20;93390.59;;;9.06;100.00
10006;BME280;5042;42.626;23.382;2023-04-12T02:45:47;93394.59;;;9.08;100.00
10006;BME280;5042;42.626;23.382;2023-04-12T02:48:14;93387.00;;;9.07;100.00
10006;BME280;5042;42.626;23.382;2023-04-12T02:50:41;93386.19;;;9.06;100.00
10006;BME280;5042;42.626;23.382;2023-04-12T02:53:09;93392.00;;;9.08;100.00
10006;BME280;5042;42.626;23.382;2023-04-12T02:55:37;93392.59;;;9.10;100.00
10006;BME280;5042;42.626;23.382;2023-04-12T02:58:04;93388.59;;;9.08;100.00
10006;BME280;5042;42.626;23.382;2023-04-12T03:00:31;93396.84;;;9.05;100.00
10006;BME280;5042;42.626;23.382;2023-04-12T03:02:58;93392.59;;;9.04;100.00
10006;BME280;5042;42.626;23.382;2023-04-12T03:05:25;93387.41;;;8.97;100.00
10006;BME280;5042;42.626;23.382;2023-04-12T03:07:52;93395.63;;;9.01;100.00
10006;BME280;5042;42.626;23.382;2023-04-12T03:10:21;93387.19;;;8.99;100.00
10006;BME280;5042;42.626;23.382;2023-04-12T03:12:47;93396.25;;;9.03;100.00
10006;BME280;5042;42.626;23.382;2023-04-12T03:15:14;93389.19;;;9.03;100.00
10006;BME280;5042;42.626;23.382;2023-04-12T03:17:42;93385.97;;;9.08;100.00
10006;BME280;5042;42.626;23.382;2023-04-12T03:20:09;93380.34;;;9.04;100.00
10006;BME280;5042;42.626;23.382;2023-04-12T03:22:36;93392.41;;;9.12;100.00
10006;BME280;5042;42.626;23.382;2023-04-12T03:25:03;93391.19;;;9.15;100.00
10006;BME280;5042;42.626;23.382;2023-04-12T03:27:31;93391.00;;;9.16;100.00
10006;BME280;5042;42.626;23.382;2023-04-12T03:29:58;93400.63;;;9.16;100.00
10006;BME280;5042;42.626;23.382;2023-04-12T03:32:25;93393.00;;;9.14;100.00
10006;BME280;5042;42.626;23.382;2023-04-12T03:34:52;93399.03;;;9.15;100.00
10006;BME280;5042;42.626;23.382;2023-04-12T03:37:19;93397.81;;;9.17;100.00
10006;BME280;5042;42.626;23.382;2023-04-12T03:39:46;93396.22;;;9.16;100.00
10006;BME280;5042;42.626;23.382;2023-04-12T03:42:13;93393.78;;;9.21;100.00
10006;BME280;5042;42.626;23.382;2023-04-12T03:44:41;93400.44;;;9.17;100.00
10006;BME280;5042;42.626;23.382;2023-04-12T03:47:08;93412.47;;;9.18;100.00
10006;BME280;5042;42.626;23.382;2023-04-12T03:49:36;93418.31;;;9.20;100.00
10006;BME280;5042;42.626;23.382;2023-04-12T03:52:04;93401.66;;;9.15;100.00
10006;BME280;5042;42.626;23.382;2023-04-12T03:54:31;93407.06;;;9.13;100.00
10006;BME280;5042;42.626;23.382;2023-04-12T03:56:58;93403.84;;;9.24;100.00
10006;BME280;5042;42.626;23.382;2023-04-12T03:59:26;93392.78;;;9.22;100.00
10006;BME280;5042;42.626;23.382;2023-04-12T04:01:54;93403.03;;;9.24;100.00
10006;BME280;5042;42.626;23.382;2023-04-12T04:04:21;93405.03;;;9.28;100.00
10006;BME280;5042;42.626;23.382;2023-04-12T04:06:48;93405.03;;;9.28;100.00
10006;BME280;5042;42.626;23.382;2023-04-12T04:09:15;93409.84;;;9.31;100.00
10006;BME280;5042;42.626;23.382;2023-04-12T04:11:42;93408.88;;;9.32;100.00
10006;BME280;5042;42.626;23.382;2023-04-12T04:14:09;93409.84;;;9.31;100.00
10006;BME280;5042;42.626;23.382;2023-04-12T04:16:35;93399.03;;;9.21;100.00
10006;BME280;5042;42.626;23.382;2023-04-12T04:19:03;93382.16;;;9.04;100.00
10006;BME280;5042;42.626;23.382;2023-04-12T04:21:30;93417.88;;;9.37;100.00
10006;BME280;5042;42.626;23.382;2023-04-12T04:23:58;93424.34;;;9.34;100.00
10006;BME280;5042;42.626;23.382;2023-04-12T04:26:25;93426.34;;;9.32;100.00
10006;BME280;5042;42.626;23.382;2023-04-12T04:28:56;93431.97;;;9.36;100.00
10006;BME280;5042;42.626;23.382;2023-04-12T04:31:26;93433.38;;;9.38;100.00
10006;BME280;5042;42.626;23.382;2023-04-12T04:33:59;93458.56;;;9.32;100.00
10006;BME280;5042;42.626;23.382;2023-04-12T04:36:27;93458.56;;;9.32;100.00
10006;BME280;5042;42.626;23.382;2023-04-12T04:38:54;93462.56;;;9.28;100.00
10006;BME280;5042;42.626;23.382;2023-04-12T04:41:21;93461.38;;;9.24;100.00
10006;BME280;5042;42.626;23.382;2023-04-12T04:43:48;93462.97;;;9.25;100.00
10006;BME280;5042;42.626;23.382;2023-04-12T04:46:15;93463.19;;;9.24;100.00
10006;BME280;5042;42.626;23.382;2023-04-12T04:48:46;93463.38;;;9.29;100.00
10006;BME280;5042;42.626;23.382;2023-04-12T04:51:13;93467.38;;;9.31;100.00
10006;BME280;5042;42.626;23.382;2023-04-12T04:53:41;93471.63;;;9.32;100.00
10006;BME280;5042;42.626;23.382;2023-04-12T04:56:09;93465.78;;;9.30;100.00
10006;BME280;5042;42.626;23.382;2023-04-12T04:58:36;93474.63;;;9.29;100.00
10006;BME280;5042;42.626;23.382;2023-04-12T05:01:02;93469.00;;;9.32;100.00
10006;BME280;5042;42.626;23.382;2023-04-12T05:03:29;93459.16;;;9.28;100.00
10006;BME280;5042;42.626;23.382;2023-04-12T05:05:58;93467.81;;;9.28;100.00
10006;BME280;5042;42.626;23.382;2023-04-12T05:08:25;93478.84;;;9.37;100.00
10006;BME280;5042;42.626;23.382;2023-04-12T05:10:54;93478.03;;;9.30;100.00
10006;BME280;5042;42.626;23.382;2023-04-12T05:13:21;93475.84;;;9.20;100.00
10006;BME280;5042;42.626;23.382;2023-04-12T05:15:48;93445.50;;;8.99;100.00
10006;BME280;5042;42.626;23.382;2023-04-12T05:18:15;93488.72;;;9.28;100.00
10006;BME280;5042;42.626;23.382;2023-04-12T05:20:43;93497.38;;;9.29;100.00
10006;BME280;5042;42.626;23.382;2023-04-12T05:23:09;93493.13;;;9.34;100.00
10006;BME280;5042;42.626;23.382;2023-04-12T05:25:42;93498.16;;;9.29;100.00
10006;BME280;5042;42.626;23.382;2023-04-12T05:28:13;93493.13;;;9.34;100.00
10006;BME280;5042;42.626;23.382;2023-04-12T05:30:39;93498.38;;;9.28;100.00
10006;BME280;5042;42.626;23.382;2023-04-12T05:33:06;93497.56;;;9.34;100.00
10006;BME280;5042;42.626;23.382;2023-04-12T05:35:33;93494.34;;;9.39;100.00
10006;BME280;5042;42.626;23.382;2023-04-12T05:38:00;93498.78;;;9.38;100.00
10006;BME280;5042;42.626;23.382;2023-04-12T05:40:27;93464.78;;;9.18;100.00
10006;BME280;5042;42.626;23.382;2023-04-12T05:42:56;93486.69;;;9.37;100.00
10006;BME280;5042;42.626;23.382;2023-04-12T05:45:24;93486.06;;;9.42;100.00
10006;BME280;5042;42.626;23.382;2023-04-12T05:47:50;93501.78;;;9.42;100.00
10006;BME280;5042;42.626;23.382;2023-04-12T05:50:17;93496.75;;;9.40;100.00
10006;BME280;5042;42.626;23.382;2023-04-12T05:52:45;93493.94;;;9.42;100.00
10006;BME280;5042;42.626;23.382;2023-04-12T05:55:12;93497.75;;;9.46;100.00
10006;BME280;5042;42.626;23.382;2023-04-12T05:57:41;93488.69;;;9.48;100.00
10006;BME280;5042;42.626;23.382;2023-04-12T06:00:09;93495.56;;;9.43;100.00
10006;BME280;5042;42.626;23.382;2023-04-12T06:02:39;93500.78;;;9.29;100.00
10006;BME280;5042;42.626;23.382;2023-04-12T06:05:07;93511.84;;;9.31;100.00
10006;BME280;5042;42.626;23.382;2023-04-12T06:07:34;93516.47;;;9.36;100.00
10006;BME280;5042;42.626;23.382;2023-04-12T06:10:01;93515.88;;;9.27;100.00
10006;BME280;5042;42.626;23.382;2023-04-12T06:12:28;93510.66;;;9.21;100.00
10006;BME280;5042;42.626;23.382;2023-04-12T06:14:54;93521.72;;;9.16;100.00
10006;BME280;5042;42.626;23.382;2023-04-12T06:17:22;93533.59;;;9.12;100.00
10006;BME280;5042;42.626;23.382;2023-04-12T06:19:50;93539.41;;;9.07;100.00
10006;BME280;5042;42.626;23.382;2023-04-12T06:22:17;93537.41;;;9.09;100.00
10006;BME280;5042;42.626;23.382;2023-04-12T06:24:43;93539.81;;;9.11;100.00
10006;BME280;5042;42.626;23.382;2023-04-12T06:27:10;93551.88;;;9.12;100.00
10006;BME280;5042;42.626;23.382;2023-04-12T06:29:37;93542.22;;;9.06;100.00
10006;BME280;5042;42.626;23.382;2023-04-12T06:32:04;93541.03;;;9.02;100.00
10006;BME280;5042;42.626;23.382;2023-04-12T06:34:30;93543.03;;;8.93;100.00
10006;BME280;5042;42.626;23.382;2023-04-12T06:36:59;93545.59;;;8.80;100.00
10006;BME280;5042;42.626;23.382;2023-04-12T06:39:25;93535.75;;;8.82;100.00
10006;BME280;5042;42.626;23.382;2023-04-12T06:41:52;93547.00;;;8.82;100.00
10006;BME280;5042;42.626;23.382;2023-04-12T06:44:21;93539.41;;;8.87;100.00
10006;BME280;5042;42.626;23.382;2023-04-12T06:46:48;93537.56;;;8.81;100.00
10006;BME280;5042;42.626;23.382;2023-04-12T06:49:15;93537.38;;;8.89;100.00
10006;BME280;5042;42.626;23.382;2023-04-12T06:51:42;93525.94;;;8.97;100.00
10006;BME280;5042;42.626;23.382;2023-04-12T06:54:10;93532.59;;;9.06;100.00
10006;BME280;5042;42.626;23.382;2023-04-12T06:56:37;93528.53;;;9.10;100.00
10006;BME280;5042;42.626;23.382;2023-04-12T06:59:05;93530.56;;;9.22;100.00
10006;BME280;5042;42.626;23.382;2023-04-12T07:01:32;93532.16;;;9.29;100.00
10006;BME280;5042;42.626;23.382;2023-04-12T07:03:58;93534.19;;;9.34;100.00
10006;BME280;5042;42.626;23.382;2023-04-12T07:06:26;93523.91;;;9.39;100.00
10006;BME280;5042;42.626;23.382;2023-04-12T07:08:53;93522.50;;;9.50;100.00
10006;BME280;5042;42.626;23.382;2023-04-12T07:11:21;93517.22;;;9.63;100.00
10006;BME280;5042;42.626;23.382;2023-04-12T07:13:48;93474.22;;;9.39;100.00
10006;BME280;5042;42.626;23.382;2023-04-12T07:16:15;93522.34;;;10.16;100.00
10006;BME280;5042;42.626;23.382;2023-04-12T07:18:42;93516.69;;;10.65;100.00
10006;BME280;5042;42.626;23.382;2023-04-12T07:21:09;93530.09;;;11.13;100.00
10006;BME280;5042;42.626;23.382;2023-04-12T07:23:38;93533.06;;;11.49;98.24
10006;BME280;5042;42.626;23.382;2023-04-12T07:26:05;93513.75;;;11.36;94.25
10006;BME280;5042;42.626;23.382;2023-04-12T07:28:33;93527.63;;;11.43;94.33
10006;BME280;5042;42.626;23.382;2023-04-12T07:31:03;93526.78;;;11.50;94.10
10006;BME280;5042;42.626;23.382;2023-04-12T07:33:30;93523.31;;;11.74;92.91
10006;BME280;5042;42.626;23.382;2023-04-12T07:35:59;93502.06;;;12.01;91.23
10006;BME280;5042;42.626;23.382;2023-04-12T07:38:26;93492.56;;;12.18;88.94
10006;BME280;5042;42.626;23.382;2023-04-12T07:40:53;93497.97;;;12.23;86.16
10006;BME280;5042;42.626;23.382;2023-04-12T07:43:20;93516.22;;;12.18;88.11
10006;BME280;5042;42.626;23.382;2023-04-12T07:45:48;93523.63;;;12.58;82.26
10006;BME280;5042;42.626;23.382;2023-04-12T07:48:15;93515.25;;;12.80;81.80
10006;BME280;5042;42.626;23.382;2023-04-12T07:50:42;93524.72;;;13.23;79.25
10006;BME280;5042;42.626;23.382;2023-04-12T07:53:20;93528.91;;;13.12;76.09
10006;BME280;5042;42.626;23.382;2023-04-12T07:55:47;93520.00;;;12.71;75.40
10006;BME280;5042;42.626;23.382;2023-04-12T07:58:15;93490.91;;;12.54;81.14
10006;BME280;5042;42.626;23.382;2023-04-12T08:00:42;93510.19;;;13.20;77.43
10006;BME280;5042;42.626;23.382;2023-04-12T08:03:12;93507.06;;;13.11;75.39
10006;BME280;5042;42.626;23.382;2023-04-12T08:05:39;93498.28;;;12.76;74.48
10006;BME280;5042;42.626;23.382;2023-04-12T08:08:06;93498.75;;;12.72;75.23
10006;BME280;5042;42.626;23.382;2023-04-12T08:10:34;93507.47;;;12.85;70.96
10006;BME280;5042;42.626;23.382;2023-04-12T08:13:01;93499.38;;;12.56;69.35
10006;BME280;5042;42.626;23.382;2023-04-12T08:15:28;93502.81;;;12.08;70.68
10006;BME280;5042;42.626;23.382;2023-04-12T08:17:55;93499.94;;;12.09;72.12
10006;BME280;5042;42.626;23.382;2023-04-12T08:20:23;93499.28;;;11.96;73.55
10006;BME280;5042;42.626;23.382;2023-04-12T08:22:50;93507.88;;;11.84;72.12
10006;BME280;5042;42.626;23.382;2023-04-12T08:25:17;93500.78;;;11.85;69.03
10006;BME280;5042;42.626;23.382;2023-04-12T08:27:44;93516.25;;;11.75;66.81
10006;BME280;5042;42.626;23.382;2023-04-12T08:30:12;93522.13;;;11.95;65.99
10006;BME280;5042;42.626;23.382;2023-04-12T08:32:38;93512.19;;;11.97;62.47
10006;BME280;5042;42.626;23.382;2023-04-12T08:35:06;93514.00;;;12.34;58.68
10006;BME280;5042;42.626;23.382;2023-04-12T08:37:35;93490.84;;;12.42;58.89
10006;BME280;5042;42.626;23.382;2023-04-12T08:40:03;93506.09;;;12.82;60.56
10006;BME280;5042;42.626;23.382;2023-04-12T08:42:33;93504.44;;;13.11;58.00
10006;BME280;5042;42.626;23.382;2023-04-12T08:45:03;93500.53;;;13.44;56.37
10006;BME280;5042;42.626;23.382;2023-04-12T08:47:31;93502.81;;;13.76;56.69
10006;BME280;5042;42.626;23.382;2023-04-12T08:49:59;93435.38;;;14.15;56.11
10006;BME280;5042;42.626;23.382;2023-04-12T08:52:27;93484.97;;;14.88;52.03
10006;BME280;5042;42.626;23.382;2023-04-12T08:54:55;93505.56;;;14.86;49.53
10006;BME280;5042;42.626;23.382;2023-04-12T08:57:22;93506.50;;;14.79;50.49
10006;BME280;5042;42.626;23.382;2023-04-12T08:59:49;93493.97;;;14.46;49.77
10006;BME280;5042;42.626;23.382;2023-04-12T09:02:17;93495.56;;;14.07;52.44
10006;BME280;5042;42.626;23.382;2023-04-12T09:04:47;93471.06;;;13.83;53.42
10006;BME280;5042;42.626;23.382;2023-04-12T09:07:15;93484.34;;;13.99;54.91
10006;BME280;5042;42.626;23.382;2023-04-12T09:09:42;93490.34;;;14.24;52.38
10006;BME280;5042;42.626;23.382;2023-04-12T09:12:12;93490.09;;;13.61;53.34
10006;BME280;5042;42.626;23.382;2023-04-12T09:14:40;93488.63;;;13.42;56.27
10006;BME280;5042;42.626;23.382;2023-04-12T09:17:20;93480.31;;;14.09;56.12
10006;BME280;5042;42.626;23.382;2023-04-12T09:19:47;93439.09;;;14.03;52.96
10006;BME280;5042;42.626;23.382;2023-04-12T09:22:14;93476.75;;;14.84;51.62
10006;BME280;5042;42.626;23.382;2023-04-12T09:24:48;93418.00;;;14.89;48.72
10006;BME280;5042;42.626;23.382;2023-04-12T09:27:18;93478.88;;;15.33;49.46
10006;BME280;5042;42.626;23.382;2023-04-12T09:29:46;93461.75;;;15.52;51.77
10006;BME280;5042;42.626;23.382;2023-04-12T09:32:23;93485.19;;;15.32;48.09
10006;BME280;5042;42.626;23.382;2023-04-12T09:34:54;93468.78;;;14.96;47.74
10006;BME280;5042;42.626;23.382;2023-04-12T09:37:22;93482.31;;;15.16;48.83
10006;BME280;5042;42.626;23.382;2023-04-12T09:39:57;93475.88;;;14.78;45.14
10006;BME280;5042;42.626;23.382;2023-04-12T09:42:26;93447.31;;;14.75;44.62
10006;BME280;5042;42.626;23.382;2023-04-12T09:44:53;93479.75;;;14.76;45.30
10006;BME280;5042;42.626;23.382;2023-04-12T09:47:20;93460.47;;;15.04;43.50
10006;BME280;5042;42.626;23.382;2023-04-12T09:49:47;93444.88;;;14.86;43.82
10006;BME280;5042;42.626;23.382;2023-04-12T09:52:14;93450.84;;;14.81;46.58
10006;BME280;5042;42.626;23.382;2023-04-12T09:54:42;93449.88;;;14.87;45.30
10006;BME280;5042;42.626;23.382;2023-04-12T09:57:09;93447.50;;;15.36;44.24
10006;BME280;5042;42.626;23.382;2023-04-12T09:59:39;93439.16;;;15.78;43.98
10006;BME280;5042;42.626;23.382;2023-04-12T10:02:09;93435.69;;;15.78;42.83
10006;BME280;5042;42.626;23.382;2023-04-12T10:04:38;93421.97;;;15.76;44.62
10006;BME280;5042;42.626;23.382;2023-04-12T10:07:05;93421.16;;;15.97;43.73
10006;BME280;5042;42.626;23.382;2023-04-12T10:09:33;93410.34;;;15.99;41.99
10006;BME280;5042;42.626;23.382;2023-04-12T10:12:01;93414.41;;;15.67;44.89
10006;BME280;5042;42.626;23.382;2023-04-12T10:14:29;93423.88;;;15.80;41.95
10006;BME280;5042;42.626;23.382;2023-04-12T10:16:59;93424.91;;;15.62;37.40
10006;BME280;5042;42.626;23.382;2023-04-12T10:19:27;93427.47;;;15.57;37.15
10006;BME280;5042;42.626;23.382;2023-04-12T10:21:54;93414.16;;;15.86;37.31
10006;BME280;5042;42.626;23.382;2023-04-12T10:24:22;93404.16;;;14.98;34.36
10006;BME280;5042;42.626;23.382;2023-04-12T10:26:50;93415.34;;;15.22;35.57
10006;BME280;5042;42.626;23.382;2023-04-12T10:29:21;93405.91;;;15.43;34.60
10006;BME280;5042;42.626;23.382;2023-04-12T10:31:49;93391.34;;;15.41;35.52
10006;BME280;5042;42.626;23.382;2023-04-12T10:34:17;93415.31;;;15.56;35.64
10006;BME280;5042;42.626;23.382;2023-04-12T10:36:50;93405.34;;;15.63;35.19
10006;BME280;5042;42.626;23.382;2023-04-12T10:39:16;93409.03;;;15.79;36.37
10006;BME280;5042;42.626;23.382;2023-04-12T10:42:14;93398.34;;;16.13;36.34
10006;BME280;5042;42.626;23.382;2023-04-12T10:44:41;93401.44;;;15.83;36.86
10006;BME280;5042;42.626;23.382;2023-04-12T10:47:09;93396.75;;;15.51;35.77
10006;BME280;5042;42.626;23.382;2023-04-12T10:49:38;93393.00;;;15.47;37.13
10006;BME280;5042;42.626;23.382;2023-04-12T10:52:12;93307.34;;;15.38;38.25
10006;BME280;5042;42.626;23.382;2023-04-12T10:54:41;93386.00;;;15.75;33.24
10006;BME280;5042;42.626;23.382;2023-04-12T10:57:39;93382.94;;;15.66;34.61
10006;BME280;5042;42.626;23.382;2023-04-12T11:00:08;93369.50;;;15.67;35.10
10006;BME280;5042;42.626;23.382;2023-04-12T11:03:05;93371.84;;;15.08;31.76
10006;BME280;5042;42.626;23.382;2023-04-12T11:05:59;93363.53;;;15.16;33.41
10006;BME280;5042;42.626;23.382;2023-04-12T11:08:28;93359.34;;;15.20;33.46
10006;BME280;5042;42.626;23.382;2023-04-12T11:11:02;93353.38;;;15.47;35.58
10006;BME280;5042;42.626;23.382;2023-04-12T11:13:33;93377.16;;;15.86;33.47
10006;BME280;5042;42.626;23.382;2023-04-12T11:16:02;93390.38;;;15.86;31.56
10006;BME280;5042;42.626;23.382;2023-04-12T11:18:29;93387.72;;;15.86;31.61
10006;BME280;5042;42.626;23.382;2023-04-12T11:20:57;93383.47;;;15.85;33.12
10006;BME280;5042;42.626;23.382;2023-04-12T11:23:25;93371.41;;;15.94;31.94
10006;BME280;5042;42.626;23.382;2023-04-12T11:25:52;93377.69;;;16.10;30.18
10006;BME280;5042;42.626;23.382;2023-04-12T11:28:19;93378.53;;;16.16;31.96
10006;BME280;5042;42.626;23.382;2023-04-12T11:30:49;93357.72;;;15.97;31.44
10006;BME280;5042;42.626;23.382;2023-04-12T11:33:30;93371.81;;;16.30;32.94
10006;BME280;5042;42.626;23.382;2023-04-12T11:35:57;93377.84;;;15.76;31.06
10006;BME280;5042;42.626;23.382;2023-04-12T11:38:26;93368.00;;;15.16;30.91
10006;BME280;5042;42.626;23.382;2023-04-12T11:40:53;93367.22;;;14.98;32.16
10006;BME280;5042;42.626;23.382;2023-04-12T11:43:20;93377.28;;;15.01;32.30
10006;BME280;5042;42.626;23.382;2023-04-12T11:45:47;93358.59;;;14.69;32.99
10006;BME280;5042;42.626;23.382;2023-04-12T11:48:15;93365.06;;;14.78;33.11
10006;BME280;5042;42.626;23.382;2023-04-12T11:50:41;93381.25;;;15.21;31.77
10006;BME280;5042;42.626;23.382;2023-04-12T11:53:09;93364.69;;;15.42;30.17
10006;BME280;5042;42.626;23.382;2023-04-12T11:55:38;93385.97;;;15.36;30.33
10006;BME280;5042;42.626;23.382;2023-04-12T11:58:05;93393.19;;;14.56;30.64
10006;BME280;5042;42.626;23.382;2023-04-12T12:00:33;93377.06;;;14.40;32.71
10006;BME280;5042;42.626;23.382;2023-04-12T12:03:00;93366.88;;;14.61;32.42
10006;BME280;5042;42.626;23.382;2023-04-12T12:05:27;93351.03;;;14.44;32.12
10006;BME280;5042;42.626;23.382;2023-04-12T12:07:54;93373.13;;;14.55;32.30
10006;BME280;5042;42.626;23.382;2023-04-12T12:10:21;93376.81;;;14.71;31.99
10006;BME280;5042;42.626;23.382;2023-04-12T12:12:49;93382.34;;;15.03;31.83
10006;BME280;5042;42.626;23.382;2023-04-12T12:15:16;93375.84;;;14.94;31.87
10006;BME280;5042;42.626;23.382;2023-04-12T12:17:42;93382.63;;;14.27;32.25
10006;BME280;5042;42.626;23.382;2023-04-12T12:20:18;93370.66;;;14.36;33.38
10006;BME280;5042;42.626;23.382;2023-04-12T12:22:45;93362.34;;;14.45;32.70
10006;BME280;5042;42.626;23.382;2023-04-12T12:25:12;93360.97;;;14.25;33.64
10006;BME280;5042;42.626;23.382;2023-04-12T12:27:39;93365.97;;;14.38;33.06
10006;BME280;5042;42.626;23.382;2023-04-12T12:30:10;93368.34;;;14.86;34.24
10006;BME280;5042;42.626;23.382;2023-04-12T12:32:39;93359.88;;;14.67;33.12
10006;BME280;5042;42.626;23.382;2023-04-12T12:35:08;93375.38;;;14.97;34.55
10006;BME280;5042;42.626;23.382;2023-04-12T12:37:35;93371.66;;;15.32;32.77
10006;BME280;5042;42.626;23.382;2023-04-12T12:40:03;93368.03;;;15.55;32.71
10006;BME280;5042;42.626;23.382;2023-04-12T12:42:44;93383.13;;;15.59;31.18
10006;BME280;5042;42.626;23.382;2023-04-12T12:45:13;93389.59;;;14.62;31.52
10006;BME280;5042;42.626;23.382;2023-04-12T12:47:47;93383.22;;;14.46;33.26
10006;BME280;5042;42.626;23.382;2023-04-12T12:50:15;93381.19;;;14.65;33.93
10006;BME280;5042;42.626;23.382;2023-04-12T12:52:43;93371.53;;;14.42;34.77
10006;BME280;5042;42.626;23.382;2023-04-12T12:55:10;93368.50;;;14.79;34.00
10006;BME280;5042;42.626;23.382;2023-04-12T12:57:37;93378.97;;;14.91;32.52
10006;BME280;5042;42.626;23.382;2023-04-12T13:00:07;93365.53;;;14.92;32.79
10006;BME280;5042;42.626;23.382;2023-04-12T13:02:37;93381.13;;;14.77;31.83
10006;BME280;5042;42.626;23.382;2023-04-12T13:05:04;93387.00;;;14.50;32.11
10006;BME280;5042;42.626;23.382;2023-04-12T13:07:31;93315.94;;;14.27;33.17